Latest METARs, TAFs and NOTAMs for SKCG


---------------------------------------------------------------------------
	(OBSERVATIONS)
SKCG 260000Z 01004KT 9999 FEW015 SCT070 28/26 A2978=
SKCG 252300Z 36010KT 8000 SCT015 SCT070 29/25 A2975 RMK HZ=
SKCG 252200Z 34006KT 9000 SCT015CB SCT200 30/26 A2975 RMK CB
    S=
---------------------------------------------------------------------------
	(TERMINAL AREA FORECAST)
SKCG 252300Z 2600/2624 21006KT 9999 SCT017 BKN090
    PROB40 TEMPO 2606/2609 7000 TSRA SCT015CB
    BECMG 2616/2618 33008KT FEW020
    TX33/2618Z TN25/2611Z=
---------------------------------------------------------------------------
	(NOTAMS)


SKCG A0111/18 SID RNAV AKPE1G RWY 01 COMPLETELY WITHDRAWN REF.
    AMDT 53 - AD 2 - SID 6. 01 MAR 00:00 2018 UNTIL PERM. CREATED:
    17 JAN 15:54 2018

SKCG A0650/18 MID AND RWY 01 TRANSMISSOMETER U/S. H24, 28 MAR
    17:15 2018 UNTIL 28 JUN 23:59 2018 ESTIMATED. CREATED: 28
    MAR 17:16 2018

SKCG A0917/18 OCT 16,17,18,19,20 BTN 0615-1015 NOV 14,15,16,17
    BTN 0615-1015 DEC 17,18,19,20 BTN 0610-1015 RWY 01/19 CLSD.
    APR 29 BTN 0700-1015 APR 30 BTN 0615-1015 FM MAY 01 TIL MAY
    31 BTN 0615-1015 FM JUN 01 TIL JUN 26 BTN 0615-1015 JUL 16,17,18,19
    BTN 0615-1015 AUG 15,16,17,18 BTN 0615-1015 SEP 19,20,21,22
    BTN 0615-1015, 29 APR 07:30 2018 UNTIL 20 DEC 10:15 2018.
    CREATED: 29 APR 05:01 2018

SKCG A0957/18 TWY D AVBL. 04 MAY 14:20 2018 UNTIL 20 JUN 23:59
    2018. CREATED: 04 MAY 14:22 2018

SKCG A0958/18 DECLARED DIST RWY 01/19 CHG RWY TORA(M) TODA(M)
    ASDA(M) LDA(M) 01 2590 2290 2290 2290 19 2290 2290 2290 2290.
    H24, 04 MAY 14:30 2018 UNTIL 20 JUN 23:59 2018. CREATED:
    04 MAY 14:51 2018

SKCG A1022/18 FIRE FIGHTING AND RESCUE CHG TO CAT 8. MAY 13 BTN
    1900-2100 MON, WED, FRI, BTN 0000-0015 TUE, THU, SAT BTN
    2100-2359 SUN BTN 0000-0015 AND 2100-2359, 13 MAY 19:00 2018
    UNTIL PERM. CREATED: 13 MAY 18:49 2018

SKCG A2997/09 FIRE FIGHTING AND RESCUE DOWNGRADED TO CAT 7 09
    DEC 20:30 UNTIL 10 DEC 23:00 ESTIMATED

---------------------------------------------------------------------------